createdAt,value
2018-06-09T00:00:41.425Z,19.21
2018-06-09T00:01:42.004Z,19.33
2018-06-09T00:02:42.598Z,19.24
2018-06-09T00:03:43.201Z,19.27
2018-06-09T00:04:43.779Z,19.24
2018-06-09T00:05:44.403Z,19.27
2018-06-09T00:06:45.024Z,19.30
2018-06-09T00:07:45.652Z,19.19
2018-06-09T00:08:46.231Z,19.15
2018-06-09T00:09:46.859Z,19.19
2018-06-09T00:10:47.437Z,19.26
2018-06-09T00:11:48.015Z,19.21
2018-06-09T00:12:48.594Z,19.21
2018-06-09T00:13:49.224Z,19.22
2018-06-09T00:14:49.808Z,19.16
2018-06-09T00:15:50.385Z,19.24
2018-06-09T00:16:50.963Z,19.21
2018-06-09T00:17:51.541Z,19.18
2018-06-09T00:18:52.162Z,19.18
2018-06-09T00:19:52.739Z,19.26
2018-06-09T00:20:53.315Z,19.21
2018-06-09T00:21:53.896Z,19.29
2018-06-09T00:22:54.471Z,19.24
2018-06-09T00:23:55.049Z,19.29
2018-06-09T00:24:55.776Z,19.14
2018-06-09T00:25:56.355Z,19.19
2018-06-09T00:26:56.935Z,19.18
2018-06-09T00:27:57.515Z,19.22
2018-06-09T00:28:58.093Z,19.18
2018-06-09T00:29:58.672Z,19.18
2018-06-09T00:30:59.248Z,19.22
2018-06-09T00:31:59.876Z,19.16
2018-06-09T00:33:00.453Z,19.16
2018-06-09T00:34:01.084Z,19.16
2018-06-09T00:35:01.663Z,19.15
2018-06-09T00:36:02.241Z,19.16
2018-06-09T00:37:02.824Z,19.19
2018-06-09T00:38:03.398Z,19.19
2018-06-09T00:39:03.976Z,19.14
2018-06-09T00:40:04.554Z,19.08
2018-06-09T00:41:05.134Z,19.18
2018-06-09T00:42:05.714Z,19.09
2018-06-09T00:43:06.292Z,19.12
2018-06-09T00:44:06.873Z,19.19
2018-06-09T00:45:07.453Z,19.16
2018-06-09T00:46:08.079Z,19.14
2018-06-09T00:47:08.660Z,19.11
2018-06-09T00:48:09.235Z,19.14
2018-06-09T00:49:09.814Z,19.08
2018-06-09T00:50:10.441Z,19.21
2018-06-09T00:51:11.069Z,19.12
2018-06-09T00:52:11.648Z,19.09
2018-06-09T00:53:12.226Z,19.11
2018-06-09T00:54:12.807Z,19.12
2018-06-09T00:55:13.384Z,19.11
2018-06-09T00:56:13.960Z,19.18
2018-06-09T00:57:14.539Z,19.18
2018-06-09T00:58:15.116Z,19.14
2018-06-09T00:59:15.695Z,19.16
2018-06-09T01:00:16.273Z,19.09
2018-06-09T01:01:16.848Z,19.14
2018-06-09T01:02:17.517Z,19.14
2018-06-09T01:03:18.098Z,19.19
2018-06-09T01:04:18.677Z,19.15
2018-06-09T01:05:19.255Z,19.11
2018-06-09T01:06:19.834Z,19.12
2018-06-09T01:07:20.412Z,19.12
2018-06-09T01:08:21.039Z,19.09
2018-06-09T01:09:21.617Z,19.09
2018-06-09T01:10:22.197Z,19.14
2018-06-09T01:11:22.826Z,19.11
2018-06-09T01:12:23.407Z,19.02
2018-06-09T01:13:23.984Z,19.07
2018-06-09T01:14:24.565Z,19.08
2018-06-09T01:15:25.144Z,19.11
2018-06-09T01:16:25.721Z,19.04
2018-06-09T01:17:26.305Z,19.08
2018-06-09T01:18:26.884Z,19.12
2018-06-09T01:19:27.463Z,19.08
2018-06-09T01:20:28.093Z,19.07
2018-06-09T01:21:28.677Z,19.08
2018-06-09T01:22:29.255Z,19.09
2018-06-09T01:23:29.835Z,19.04
2018-06-09T01:24:30.504Z,19.07
2018-06-09T01:25:31.083Z,19.09
2018-06-09T01:26:31.663Z,19.00
2018-06-09T01:27:32.238Z,19.02
2018-06-09T01:28:32.816Z,19.09
2018-06-09T01:29:33.395Z,19.08
2018-06-09T01:30:34.023Z,18.99
2018-06-09T01:31:34.600Z,19.04
2018-06-09T01:32:35.179Z,19.00
2018-06-09T01:33:35.757Z,19.11
2018-06-09T01:34:36.334Z,19.02
2018-06-09T01:35:36.961Z,19.00
2018-06-09T01:36:37.541Z,19.07
2018-06-09T01:37:38.162Z,19.07
2018-06-09T01:38:38.737Z,19.00
2018-06-09T01:39:39.319Z,19.02
2018-06-09T01:40:39.893Z,18.98
2018-06-09T01:41:40.521Z,19.02
2018-06-09T01:42:41.108Z,19.02
2018-06-09T01:43:41.684Z,19.14
2018-06-09T01:44:42.265Z,19.02
2018-06-09T01:45:42.883Z,19.02
2018-06-09T01:46:43.462Z,18.98
2018-06-09T01:47:44.042Z,19.08
2018-06-09T01:48:44.661Z,18.99
2018-06-09T01:49:45.238Z,18.99
2018-06-09T01:50:45.867Z,19.09
2018-06-09T01:51:46.445Z,19.02
2018-06-09T01:52:47.024Z,19.07
2018-06-09T01:53:47.651Z,19.08
2018-06-09T01:54:48.232Z,19.04
2018-06-09T01:55:49.013Z,19.04
2018-06-09T01:56:49.589Z,19.08
2018-06-09T01:57:50.166Z,19.00
2018-06-09T01:58:50.743Z,18.99
2018-06-09T01:59:51.320Z,19.02
2018-06-09T02:00:51.948Z,19.07
2018-06-09T02:01:52.526Z,19.00
2018-06-09T02:02:53.105Z,19.08
2018-06-09T02:03:53.682Z,19.02
2018-06-09T02:04:54.261Z,18.96
2018-06-09T02:05:54.837Z,19.04
2018-06-09T02:06:55.414Z,18.99
2018-06-09T02:07:56.041Z,18.98
2018-06-09T02:08:56.622Z,19.00
2018-06-09T02:09:57.199Z,19.07
2018-06-09T02:10:57.779Z,19.02
2018-06-09T02:11:58.358Z,18.98
2018-06-09T02:12:58.935Z,18.99
2018-06-09T02:13:59.513Z,19.00
2018-06-09T02:15:00.096Z,18.99
2018-06-09T02:16:00.672Z,18.98
2018-06-09T02:17:01.251Z,18.99
2018-06-09T02:18:01.872Z,19.00
2018-06-09T02:19:02.452Z,19.00
2018-06-09T02:20:03.080Z,19.00
2018-06-09T02:21:03.659Z,18.99
2018-06-09T02:22:04.234Z,19.02
2018-06-09T02:23:04.812Z,18.99
2018-06-09T02:24:05.443Z,19.04
2018-06-09T02:25:06.070Z,19.02
2018-06-09T02:26:06.649Z,19.00
2018-06-09T02:27:07.279Z,19.02
2018-06-09T02:28:07.857Z,18.98
2018-06-09T02:29:08.434Z,19.00
2018-06-09T02:30:09.014Z,19.00
2018-06-09T02:31:09.632Z,18.95
2018-06-09T02:32:10.210Z,18.99
2018-06-09T02:33:10.787Z,18.98
2018-06-09T02:34:11.365Z,18.88
2018-06-09T02:35:11.945Z,18.88
2018-06-09T02:36:12.527Z,18.95
2018-06-09T02:37:13.106Z,18.98
2018-06-09T02:38:13.685Z,18.84
2018-06-09T02:39:14.263Z,18.98
2018-06-09T02:40:14.890Z,18.92
2018-06-09T02:41:15.471Z,18.96
2018-06-09T02:42:16.051Z,18.95
2018-06-09T02:43:16.710Z,18.86
2018-06-09T02:44:17.252Z,18.93
2018-06-09T02:45:17.881Z,18.96
2018-06-09T02:46:18.460Z,18.96
2018-06-09T02:47:19.039Z,18.95
2018-06-09T02:48:19.668Z,18.89
2018-06-09T02:49:20.251Z,18.92
2018-06-09T02:50:20.871Z,18.89
2018-06-09T02:51:21.449Z,18.86
2018-06-09T02:52:22.028Z,18.92
2018-06-09T02:53:22.604Z,18.92
2018-06-09T02:54:23.185Z,18.93
2018-06-09T02:55:23.853Z,18.90
2018-06-09T02:56:24.469Z,18.90
2018-06-09T02:57:25.047Z,18.90
2018-06-09T02:58:25.626Z,18.92
2018-06-09T02:59:26.206Z,18.92
2018-06-09T03:00:26.787Z,18.86
2018-06-09T03:01:27.364Z,18.83
2018-06-09T03:02:28.093Z,18.92
2018-06-09T03:03:28.670Z,18.90
2018-06-09T03:04:29.247Z,18.93
2018-06-09T03:05:29.825Z,18.84
2018-06-09T03:06:30.450Z,18.83
2018-06-09T03:07:31.029Z,18.92
2018-06-09T03:08:31.611Z,18.84
2018-06-09T03:09:32.189Z,18.81
2018-06-09T03:10:32.767Z,18.89
2018-06-09T03:11:33.345Z,18.81
2018-06-09T03:12:33.923Z,18.83
2018-06-09T03:13:34.503Z,18.83
2018-06-09T03:14:35.084Z,18.89
2018-06-09T03:15:35.659Z,18.83
2018-06-09T03:16:36.245Z,18.88
2018-06-09T03:17:36.856Z,18.83
2018-06-09T03:18:37.484Z,18.80
2018-06-09T03:19:38.060Z,18.83
2018-06-09T03:20:38.639Z,18.77
2018-06-09T03:21:39.212Z,18.80
2018-06-09T03:22:39.844Z,18.75
2018-06-09T03:23:40.419Z,18.81
2018-06-09T03:24:40.999Z,18.86
2018-06-09T03:25:41.579Z,18.80
2018-06-09T03:26:42.155Z,18.78
2018-06-09T03:27:42.733Z,18.77
2018-06-09T03:28:43.318Z,18.77
2018-06-09T03:29:43.889Z,18.74
2018-06-09T03:30:44.516Z,18.77
2018-06-09T03:31:45.095Z,18.77
2018-06-09T03:32:45.676Z,18.75
2018-06-09T03:33:46.253Z,18.75
2018-06-09T03:34:46.831Z,18.73
2018-06-09T03:35:47.408Z,18.78
2018-06-09T03:36:47.988Z,18.74
2018-06-09T03:37:48.568Z,18.74
2018-06-09T03:38:49.196Z,18.75
2018-06-09T03:39:49.773Z,18.73
2018-06-09T03:40:50.402Z,18.73
2018-06-09T03:41:50.980Z,18.77
2018-06-09T03:42:51.561Z,18.75
2018-06-09T03:43:52.182Z,18.77
2018-06-09T03:44:52.759Z,18.83
2018-06-09T03:45:53.336Z,18.73
2018-06-09T03:46:53.964Z,18.77
2018-06-09T03:47:54.540Z,18.73
2018-06-09T03:48:55.172Z,18.75
2018-06-09T03:49:55.696Z,18.73
2018-06-09T03:50:56.274Z,18.73
2018-06-09T03:51:56.853Z,18.74
2018-06-09T03:52:57.432Z,18.73
2018-06-09T03:53:58.007Z,18.70
2018-06-09T03:54:58.586Z,18.75
2018-06-09T03:55:59.164Z,18.75
2018-06-09T03:56:59.941Z,18.75
2018-06-09T03:58:00.521Z,18.77
2018-06-09T03:59:01.101Z,18.74
2018-06-09T04:00:01.680Z,18.75
2018-06-09T04:01:02.257Z,18.75
2018-06-09T04:02:02.833Z,18.75
2018-06-09T04:03:03.409Z,18.74
2018-06-09T04:04:04.036Z,18.71
2018-06-09T04:05:04.668Z,18.74
2018-06-09T04:06:05.287Z,18.70
2018-06-09T04:07:05.866Z,18.74
2018-06-09T04:08:06.442Z,18.70
2018-06-09T04:09:07.021Z,18.68
2018-06-09T04:10:07.601Z,18.73
2018-06-09T04:11:08.181Z,18.74
2018-06-09T04:12:08.808Z,18.71
2018-06-09T04:13:09.385Z,18.70
2018-06-09T04:14:09.965Z,18.75
2018-06-09T04:15:10.541Z,18.71
2018-06-09T04:16:11.122Z,18.73
2018-06-09T04:17:11.701Z,18.75
2018-06-09T04:18:12.281Z,18.75
2018-06-09T04:19:12.909Z,18.73
2018-06-09T04:20:13.543Z,18.73
2018-06-09T04:21:14.114Z,18.75
2018-06-09T04:22:14.690Z,18.62
2018-06-09T04:23:15.269Z,18.68
2018-06-09T04:24:15.896Z,18.70
2018-06-09T04:25:16.476Z,18.65
2018-06-09T04:26:17.055Z,18.75
2018-06-09T04:27:17.632Z,18.62
2018-06-09T04:28:18.215Z,18.70
2018-06-09T04:29:18.789Z,18.73
2018-06-09T04:30:19.375Z,18.66
2018-06-09T04:31:19.996Z,18.77
2018-06-09T04:32:20.573Z,18.62
2018-06-09T04:33:21.151Z,18.74
2018-06-09T04:34:21.730Z,18.70
2018-06-09T04:35:22.309Z,18.75
2018-06-09T04:36:22.887Z,18.73
2018-06-09T04:37:23.466Z,18.62
2018-06-09T04:38:24.094Z,18.68
2018-06-09T04:39:24.724Z,18.73
2018-06-09T04:40:25.301Z,18.71
2018-06-09T04:41:25.878Z,18.74
2018-06-09T04:42:26.454Z,18.74
2018-06-09T04:43:27.031Z,18.65
2018-06-09T04:44:27.662Z,18.66
2018-06-09T04:45:28.290Z,18.60
2018-06-09T04:46:28.870Z,18.74
2018-06-09T04:47:29.448Z,18.62
2018-06-09T04:48:30.028Z,18.63
2018-06-09T04:49:30.607Z,18.63
2018-06-09T04:50:31.187Z,18.62
2018-06-09T04:51:31.764Z,18.63
2018-06-09T04:52:32.343Z,18.63
2018-06-09T04:53:32.918Z,18.62
2018-06-09T04:54:33.548Z,18.60
2018-06-09T04:55:34.177Z,18.62
2018-06-09T04:56:34.752Z,18.65
2018-06-09T04:57:35.380Z,18.66
2018-06-09T04:58:35.960Z,18.65
2018-06-09T04:59:36.540Z,18.62
2018-06-09T05:00:37.115Z,18.63
2018-06-09T05:01:37.693Z,18.66
2018-06-09T05:02:38.272Z,18.62
2018-06-09T05:03:38.849Z,18.65
2018-06-09T05:04:39.427Z,18.66
2018-06-09T05:05:40.005Z,18.63
2018-06-09T05:06:40.628Z,18.66
2018-06-09T05:07:41.295Z,18.62
2018-06-09T05:08:41.872Z,18.63
2018-06-09T05:09:42.450Z,18.65
2018-06-09T05:10:43.031Z,18.59
2018-06-09T05:11:43.660Z,18.60
2018-06-09T05:12:44.284Z,18.70
2018-06-09T05:13:44.861Z,18.68
2018-06-09T05:14:45.443Z,18.62
2018-06-09T05:15:46.020Z,18.59
2018-06-09T05:16:46.597Z,18.60
2018-06-09T05:17:47.176Z,18.66
2018-06-09T05:18:47.803Z,18.62
2018-06-09T05:19:48.382Z,18.65
2018-06-09T05:20:48.962Z,18.59
2018-06-09T05:21:49.583Z,18.68
2018-06-09T05:22:50.161Z,18.59
2018-06-09T05:23:50.740Z,18.53
2018-06-09T05:24:51.360Z,18.63
2018-06-09T05:25:51.938Z,18.59
2018-06-09T05:26:52.517Z,18.63
2018-06-09T05:27:53.145Z,18.60
2018-06-09T05:28:53.721Z,18.65
2018-06-09T05:29:54.297Z,18.66
2018-06-09T05:30:54.973Z,18.62
2018-06-09T05:31:55.552Z,18.60
2018-06-09T05:32:56.130Z,18.58
2018-06-09T05:33:56.758Z,18.66
2018-06-09T05:34:57.439Z,18.55
2018-06-09T05:35:58.016Z,18.55
2018-06-09T05:36:58.594Z,18.60
2018-06-09T05:37:59.173Z,18.55
2018-06-09T05:38:59.751Z,18.59
2018-06-09T05:40:00.331Z,18.66
2018-06-09T05:41:00.914Z,18.59
2018-06-09T05:42:01.531Z,18.59
2018-06-09T05:43:02.110Z,18.63
2018-06-09T05:44:02.686Z,18.56
2018-06-09T05:45:03.264Z,18.56
2018-06-09T05:46:03.843Z,18.59
2018-06-09T05:47:04.424Z,18.66
2018-06-09T05:48:05.001Z,18.56
2018-06-09T05:49:05.582Z,18.66
2018-06-09T05:50:06.208Z,18.56
2018-06-09T05:51:06.786Z,18.58
2018-06-09T05:52:07.415Z,18.59
2018-06-09T05:53:08.044Z,18.56
2018-06-09T05:54:08.623Z,18.65
2018-06-09T05:55:09.205Z,18.65
2018-06-09T05:56:09.783Z,18.62
2018-06-09T05:57:10.363Z,18.56
2018-06-09T05:58:10.938Z,18.63
2018-06-09T05:59:11.515Z,18.58
2018-06-09T06:00:12.092Z,18.53
2018-06-09T06:01:12.669Z,18.66
2018-06-09T06:02:13.248Z,18.58
2018-06-09T06:03:13.824Z,18.55
2018-06-09T06:04:14.404Z,18.63
2018-06-09T06:05:14.982Z,18.59
2018-06-09T06:06:15.561Z,18.66
2018-06-09T06:07:16.136Z,18.59
2018-06-09T06:08:16.768Z,18.58
2018-06-09T06:09:17.346Z,18.66
2018-06-09T06:10:17.924Z,18.59
2018-06-09T06:11:18.555Z,18.52
2018-06-09T06:12:19.133Z,18.66
2018-06-09T06:13:19.708Z,18.60
2018-06-09T06:14:20.286Z,18.52
2018-06-09T06:15:21.014Z,18.56
2018-06-09T06:16:21.591Z,18.66
2018-06-09T06:17:22.171Z,18.55
2018-06-09T06:18:22.748Z,18.62
2018-06-09T06:19:23.332Z,18.60
2018-06-09T06:20:23.949Z,18.62
2018-06-09T06:21:24.527Z,18.60
2018-06-09T06:22:25.104Z,18.56
2018-06-09T06:23:25.682Z,18.65
2018-06-09T06:24:26.263Z,18.56
2018-06-09T06:25:26.888Z,18.60
2018-06-09T06:26:27.468Z,18.58
2018-06-09T06:27:28.045Z,18.65
2018-06-09T06:28:28.625Z,18.55
2018-06-09T06:29:29.206Z,18.62
2018-06-09T06:30:29.782Z,18.55
2018-06-09T06:31:30.361Z,18.52
2018-06-09T06:32:30.990Z,18.60
2018-06-09T06:33:31.619Z,18.63
2018-06-09T06:34:32.198Z,18.65
2018-06-09T06:35:32.777Z,18.65
2018-06-09T06:36:33.357Z,18.70
2018-06-09T06:37:33.935Z,18.63
2018-06-09T06:38:34.513Z,18.59
2018-06-09T06:39:35.091Z,18.65
2018-06-09T06:40:35.670Z,18.60
2018-06-09T06:41:36.295Z,18.60
2018-06-09T06:42:36.874Z,18.66
2018-06-09T06:43:37.452Z,18.63
2018-06-09T06:44:38.028Z,18.65
2018-06-09T06:45:38.606Z,18.65
2018-06-09T06:46:39.224Z,18.60
2018-06-09T06:47:39.803Z,18.58
2018-06-09T06:48:40.380Z,18.58
2018-06-09T06:49:40.957Z,18.65
2018-06-09T06:50:41.585Z,18.73
2018-06-09T06:51:42.163Z,18.63
2018-06-09T06:52:42.793Z,18.60
2018-06-09T06:53:43.369Z,18.63
2018-06-09T06:54:43.949Z,18.65
2018-06-09T06:55:44.523Z,18.63
2018-06-09T06:56:45.107Z,18.70
2018-06-09T06:57:45.731Z,18.55
2018-06-09T06:58:46.311Z,18.62
2018-06-09T06:59:46.888Z,18.60
2018-06-09T07:00:47.466Z,18.62
2018-06-09T07:01:48.044Z,18.63
2018-06-09T07:02:48.622Z,18.60
2018-06-09T07:03:49.200Z,18.63
2018-06-09T07:04:49.781Z,18.62
2018-06-09T07:05:50.409Z,18.65
2018-06-09T07:06:50.985Z,18.68
2018-06-09T07:07:51.592Z,18.60
2018-06-09T07:08:52.145Z,18.66
2018-06-09T07:09:52.720Z,18.63
2018-06-09T07:10:53.347Z,18.68
2018-06-09T07:11:53.926Z,18.71
2018-06-09T07:12:54.502Z,18.68
2018-06-09T07:13:55.081Z,18.63
2018-06-09T07:14:55.659Z,18.73
2018-06-09T07:15:56.237Z,18.65
2018-06-09T07:16:56.869Z,18.65
2018-06-09T07:17:57.447Z,18.63
2018-06-09T07:18:58.075Z,18.74
2018-06-09T07:19:58.655Z,18.65
2018-06-09T07:20:59.232Z,18.70
2018-06-09T07:21:59.811Z,18.65
2018-06-09T07:23:00.387Z,18.62
2018-06-09T07:24:00.966Z,18.75
2018-06-09T07:25:01.584Z,18.68
2018-06-09T07:26:02.168Z,18.73
2018-06-09T07:27:02.751Z,18.73
2018-06-09T07:28:03.352Z,18.77
2018-06-09T07:29:03.907Z,18.68
2018-06-09T07:30:04.534Z,18.68
2018-06-09T07:31:05.110Z,18.73
2018-06-09T07:32:05.838Z,18.77
2018-06-09T07:33:06.414Z,18.75
2018-06-09T07:34:06.998Z,18.73
2018-06-09T07:35:07.625Z,18.75
2018-06-09T07:36:08.147Z,18.78
2018-06-09T07:37:08.777Z,18.74
2018-06-09T07:38:09.356Z,18.77
2018-06-09T07:39:09.934Z,18.73
2018-06-09T07:40:10.513Z,18.73
2018-06-09T07:41:11.092Z,18.73
2018-06-09T07:42:11.672Z,18.77
2018-06-09T07:43:12.256Z,18.77
2018-06-09T07:44:12.837Z,18.78
2018-06-09T07:45:13.462Z,18.80
2018-06-09T07:46:14.042Z,18.78
2018-06-09T07:47:14.621Z,18.83
2018-06-09T07:48:15.204Z,18.77
2018-06-09T07:49:15.820Z,18.77
2018-06-09T07:50:16.397Z,18.84
2018-06-09T07:51:16.975Z,18.81
2018-06-09T07:52:17.552Z,18.75
2018-06-09T07:53:18.134Z,18.84
2018-06-09T07:54:18.760Z,18.90
2018-06-09T07:55:19.337Z,18.80
2018-06-09T07:56:19.964Z,18.83
2018-06-09T07:57:20.543Z,18.88
2018-06-09T07:58:21.122Z,18.78
2018-06-09T07:59:21.702Z,18.75
2018-06-09T08:00:22.278Z,18.80
2018-06-09T08:01:22.856Z,18.81
2018-06-09T08:02:23.432Z,18.80
2018-06-09T08:03:24.016Z,18.83
2018-06-09T08:04:24.587Z,18.80
2018-06-09T08:05:25.165Z,18.84
2018-06-09T08:06:25.744Z,18.77
2018-06-09T08:07:26.322Z,18.80
2018-06-09T08:08:26.951Z,18.84
2018-06-09T08:09:27.527Z,18.80
2018-06-09T08:10:28.105Z,18.86
2018-06-09T08:11:28.734Z,18.83
2018-06-09T08:12:29.312Z,18.93
2018-06-09T08:13:29.892Z,18.92
2018-06-09T08:14:30.472Z,18.89
2018-06-09T08:15:31.102Z,18.86
2018-06-09T08:16:31.680Z,18.90
2018-06-09T08:17:32.259Z,18.89
2018-06-09T08:18:32.839Z,18.92
2018-06-09T08:19:33.419Z,18.88
2018-06-09T08:20:33.996Z,18.90
2018-06-09T08:21:34.578Z,18.90
2018-06-09T08:22:35.151Z,18.95
2018-06-09T08:23:35.729Z,18.93
2018-06-09T08:24:36.357Z,18.95
2018-06-09T08:25:36.934Z,18.93
2018-06-09T08:26:37.514Z,18.99
2018-06-09T08:27:38.093Z,18.93
2018-06-09T08:28:38.671Z,18.89
2018-06-09T08:29:39.254Z,19.00
2018-06-09T08:30:39.827Z,18.96
2018-06-09T08:31:40.405Z,18.89
2018-06-09T08:32:41.034Z,18.84
2018-06-09T08:33:41.611Z,18.96
2018-06-09T08:34:42.189Z,18.86
2018-06-09T08:35:42.770Z,18.99
2018-06-09T08:36:43.437Z,19.00
2018-06-09T08:37:44.015Z,18.99
2018-06-09T08:38:44.594Z,18.90
2018-06-09T08:39:45.174Z,18.99
2018-06-09T08:40:45.755Z,19.02
2018-06-09T08:41:46.333Z,18.95
2018-06-09T08:42:46.917Z,18.99
2018-06-09T08:43:47.581Z,18.98
2018-06-09T08:44:48.159Z,18.98
2018-06-09T08:45:48.737Z,19.02
2018-06-09T08:46:49.319Z,18.98
2018-06-09T08:47:49.897Z,19.00
2018-06-09T08:48:50.535Z,19.08
2018-06-09T08:49:51.149Z,18.98
2018-06-09T08:50:51.729Z,18.98
2018-06-09T08:51:52.309Z,18.99
2018-06-09T08:52:52.887Z,19.00
2018-06-09T08:53:53.516Z,19.00
2018-06-09T08:54:54.096Z,19.04
2018-06-09T08:55:54.714Z,19.04
2018-06-09T08:56:55.370Z,19.08
2018-06-09T08:57:55.872Z,19.09
2018-06-09T08:58:56.507Z,19.09
2018-06-09T08:59:57.077Z,19.08
2018-06-09T09:00:57.656Z,19.04
2018-06-09T09:01:58.238Z,19.04
2018-06-09T09:02:58.858Z,19.09
2018-06-09T09:03:59.438Z,19.07
2018-06-09T09:05:00.027Z,19.14
2018-06-09T09:06:00.593Z,19.19
2018-06-09T09:07:01.169Z,19.15
2018-06-09T09:08:01.795Z,19.09
2018-06-09T09:09:02.375Z,19.08
2018-06-09T09:10:03.004Z,19.07
2018-06-09T09:11:03.582Z,19.07
2018-06-09T09:12:04.158Z,19.11
2018-06-09T09:13:04.737Z,19.08
2018-06-09T09:14:05.313Z,19.09
2018-06-09T09:15:05.892Z,19.15
2018-06-09T09:16:06.472Z,19.12
2018-06-09T09:17:07.051Z,19.12
2018-06-09T09:18:07.631Z,19.16
2018-06-09T09:19:08.211Z,19.12
2018-06-09T09:20:08.790Z,19.15
2018-06-09T09:21:09.368Z,19.14
2018-06-09T09:22:09.946Z,19.16
2018-06-09T09:23:10.567Z,19.15
2018-06-09T09:24:11.195Z,19.19
2018-06-09T09:25:11.775Z,19.19
2018-06-09T09:26:12.356Z,19.27
2018-06-09T09:27:12.932Z,19.16
2018-06-09T09:28:13.564Z,19.21
2018-06-09T09:29:14.189Z,19.16
2018-06-09T09:30:14.766Z,19.22
2018-06-09T09:31:15.343Z,19.19
2018-06-09T09:32:15.924Z,19.16
2018-06-09T09:33:16.540Z,19.27
2018-06-09T09:34:17.118Z,19.21
2018-06-09T09:35:17.696Z,19.18
2018-06-09T09:36:18.274Z,19.24
2018-06-09T09:37:18.853Z,19.19
2018-06-09T09:38:19.434Z,19.29
2018-06-09T09:39:20.014Z,19.24
2018-06-09T09:40:20.598Z,19.26
2018-06-09T09:41:21.215Z,19.27
2018-06-09T09:42:21.793Z,19.22
2018-06-09T09:43:22.373Z,19.22
2018-06-09T09:44:22.952Z,19.31
2018-06-09T09:45:23.535Z,19.31
2018-06-09T09:46:24.200Z,19.34
2018-06-09T09:47:24.747Z,19.29
2018-06-09T09:48:25.372Z,19.27
2018-06-09T09:49:25.953Z,19.37
2018-06-09T09:50:26.538Z,19.40
2018-06-09T09:51:27.157Z,19.39
2018-06-09T09:52:27.788Z,19.44
2018-06-09T09:53:28.368Z,19.44
2018-06-09T09:54:28.945Z,19.41
2018-06-09T09:55:29.524Z,19.34
2018-06-09T09:56:30.106Z,19.37
2018-06-09T09:57:30.685Z,19.37
2018-06-09T09:58:31.267Z,19.44
2018-06-09T09:59:31.846Z,19.37
2018-06-09T10:00:32.426Z,19.41
2018-06-09T10:01:33.005Z,19.36
2018-06-09T10:02:33.582Z,19.48
2018-06-09T10:03:34.161Z,19.45
2018-06-09T10:04:34.739Z,19.48
2018-06-09T10:05:35.368Z,19.47
2018-06-09T10:06:35.998Z,19.40
2018-06-09T10:07:36.578Z,19.52
2018-06-09T10:08:37.206Z,19.41
2018-06-09T10:09:37.786Z,19.48
2018-06-09T10:10:38.365Z,19.48
2018-06-09T10:11:38.943Z,19.48
2018-06-09T10:12:39.524Z,19.47
2018-06-09T10:13:40.103Z,19.51
2018-06-09T10:14:40.683Z,19.51
2018-06-09T10:15:41.263Z,19.44
2018-06-09T10:16:41.845Z,19.44
2018-06-09T10:17:42.424Z,19.51
2018-06-09T10:18:43.004Z,19.49
2018-06-09T10:19:43.585Z,19.51
2018-06-09T10:20:44.165Z,19.54
2018-06-09T10:21:44.748Z,19.54
2018-06-09T10:22:45.374Z,19.45
2018-06-09T10:23:45.956Z,19.55
2018-06-09T10:24:46.587Z,19.58
2018-06-09T10:25:47.167Z,19.41
2018-06-09T10:26:47.748Z,19.45
2018-06-09T10:27:48.329Z,19.55
2018-06-09T10:28:48.906Z,19.55
2018-06-09T10:29:49.486Z,19.59
2018-06-09T10:30:50.116Z,19.58
2018-06-09T10:31:50.697Z,19.59
2018-06-09T10:32:51.309Z,19.56
2018-06-09T10:33:51.856Z,19.56
2018-06-09T10:34:52.476Z,19.59
2018-06-09T10:35:53.056Z,19.56
2018-06-09T10:36:53.635Z,19.58
2018-06-09T10:37:54.263Z,19.63
2018-06-09T10:38:54.841Z,19.49
2018-06-09T10:39:55.422Z,19.49
2018-06-09T10:40:56.001Z,19.54
2018-06-09T10:41:56.628Z,19.54
2018-06-09T10:42:57.208Z,19.58
2018-06-09T10:43:57.838Z,19.56
2018-06-09T10:44:58.420Z,19.62
2018-06-09T10:45:58.997Z,19.62
2018-06-09T10:46:59.576Z,19.59
2018-06-09T10:48:00.156Z,19.64
2018-06-09T10:49:00.736Z,19.62
2018-06-09T10:50:01.369Z,19.62
2018-06-09T10:51:01.950Z,19.58
2018-06-09T10:52:02.531Z,19.58
2018-06-09T10:53:03.111Z,19.64
2018-06-09T10:54:03.692Z,19.64
2018-06-09T10:55:04.271Z,19.58
2018-06-09T10:56:04.892Z,19.64
2018-06-09T10:57:05.479Z,19.56
2018-06-09T10:58:06.055Z,19.64
2018-06-09T10:59:06.645Z,19.58
2018-06-09T11:00:07.258Z,19.58
2018-06-09T11:01:07.838Z,19.66
2018-06-09T11:02:08.458Z,19.69
2018-06-09T11:03:09.094Z,19.62
2018-06-09T11:04:09.670Z,19.63
2018-06-09T11:05:10.342Z,19.62
2018-06-09T11:06:10.972Z,19.59
2018-06-09T11:07:11.552Z,19.58
2018-06-09T11:08:12.131Z,19.64
2018-06-09T11:09:12.711Z,19.64
2018-06-09T11:10:13.291Z,19.63
2018-06-09T11:11:13.873Z,19.66
2018-06-09T11:12:14.452Z,19.70
2018-06-09T11:13:15.033Z,19.63
2018-06-09T11:14:15.612Z,19.69
2018-06-09T11:15:16.247Z,19.66
2018-06-09T11:16:16.824Z,19.66
2018-06-09T11:17:17.405Z,19.63
2018-06-09T11:18:18.011Z,19.64
2018-06-09T11:19:18.565Z,19.69
2018-06-09T11:20:19.143Z,19.67
2018-06-09T11:21:19.770Z,19.69
2018-06-09T11:22:20.352Z,19.73
2018-06-09T11:23:20.980Z,19.74
2018-06-09T11:24:21.611Z,19.88
2018-06-09T11:25:22.234Z,19.92
2018-06-09T11:26:22.812Z,19.92
2018-06-09T11:27:23.391Z,20.00
2018-06-09T11:28:23.971Z,20.00
2018-06-09T11:29:24.552Z,20.03
2018-06-09T11:30:25.233Z,20.07
2018-06-09T11:31:26.012Z,20.16
2018-06-09T11:32:26.590Z,20.02
2018-06-09T11:33:27.168Z,20.13
2018-06-09T11:34:27.747Z,20.16
2018-06-09T11:35:28.327Z,20.13
2018-06-09T11:36:28.910Z,20.21
2018-06-09T11:37:29.491Z,20.18
2018-06-09T11:38:30.176Z,20.13
2018-06-09T11:39:30.755Z,20.07
2018-06-09T11:40:31.335Z,20.18
2018-06-09T11:41:31.915Z,20.18
2018-06-09T11:42:32.496Z,20.16
2018-06-09T11:43:33.076Z,20.18
2018-06-09T11:44:33.657Z,20.16
2018-06-09T11:45:34.287Z,20.16
2018-06-09T11:46:34.916Z,20.18
2018-06-09T11:47:35.497Z,20.03
2018-06-09T11:48:36.077Z,20.14
2018-06-09T11:49:36.656Z,20.14
2018-06-09T11:50:37.237Z,20.04
2018-06-09T11:51:37.822Z,20.10
2018-06-09T11:52:38.398Z,20.03
2018-06-09T11:53:38.975Z,20.02
2018-06-09T11:54:39.607Z,20.06
2018-06-09T11:55:40.233Z,20.07
2018-06-09T11:56:40.811Z,20.04
2018-06-09T11:57:41.392Z,20.03
2018-06-09T11:58:42.018Z,20.07
2018-06-09T11:59:42.550Z,20.06
2018-06-09T12:00:43.130Z,20.03
2018-06-09T12:01:43.718Z,20.07
2018-06-09T12:02:44.285Z,20.07
2018-06-09T12:03:44.864Z,20.07
2018-06-09T12:04:45.495Z,20.10
2018-06-09T12:05:46.073Z,20.09
2018-06-09T12:06:46.653Z,20.02
2018-06-09T12:07:47.231Z,20.04
2018-06-09T12:08:47.811Z,19.99
2018-06-09T12:09:48.391Z,19.96
2018-06-09T12:10:48.973Z,20.06
2018-06-09T12:11:49.604Z,19.95
2018-06-09T12:12:50.183Z,20.04
2018-06-09T12:13:50.764Z,20.03
2018-06-09T12:14:51.394Z,20.09
2018-06-09T12:15:51.974Z,20.06
2018-06-09T12:16:52.561Z,20.04
2018-06-09T12:17:53.185Z,20.11
2018-06-09T12:18:53.812Z,20.28
2018-06-09T12:19:54.396Z,20.62
2018-06-09T12:20:54.983Z,20.88
2018-06-09T12:21:55.618Z,21.03
2018-06-09T12:22:56.203Z,21.17
2018-06-09T12:23:56.790Z,21.30
2018-06-09T12:24:57.473Z,21.42
2018-06-09T12:25:58.001Z,21.45
2018-06-09T12:26:58.636Z,21.58
2018-06-09T12:27:59.223Z,21.70
2018-06-09T12:28:59.809Z,21.80
2018-06-09T12:30:00.404Z,21.93
2018-06-09T12:31:00.978Z,21.91
2018-06-09T12:32:01.565Z,21.92
2018-06-09T12:33:02.238Z,21.95
2018-06-09T12:34:02.836Z,21.89
2018-06-09T12:35:03.462Z,21.96
2018-06-09T12:36:04.048Z,21.96
2018-06-09T12:37:04.632Z,21.87
2018-06-09T12:38:05.217Z,21.96
2018-06-09T12:39:05.804Z,21.95
2018-06-09T12:40:06.539Z,21.99
2018-06-09T12:41:07.125Z,21.99
2018-06-09T12:42:07.715Z,21.80
2018-06-09T12:43:08.299Z,21.67
2018-06-09T12:44:08.882Z,21.72
2018-06-09T12:45:09.470Z,21.60
2018-06-09T12:46:10.055Z,21.60
2018-06-09T12:47:10.644Z,21.52
2018-06-09T12:48:11.227Z,21.58
2018-06-09T12:49:11.813Z,21.69
2018-06-09T12:50:12.449Z,21.66
2018-06-09T12:51:13.085Z,21.75
2018-06-09T12:52:13.672Z,21.91
2018-06-09T12:53:14.258Z,21.89
2018-06-09T12:54:14.846Z,21.99
2018-06-09T12:55:15.431Z,21.99
2018-06-09T12:56:16.018Z,22.02
2018-06-09T12:57:16.605Z,22.04
2018-06-09T12:58:17.234Z,22.06
2018-06-09T12:59:17.817Z,22.14
2018-06-09T13:00:18.405Z,22.14